Terminal Aerodrome Forecast
Issued by NWS Twin Cities, MN

Home | Current Version | Previous Version | Text Only | Print | Product List | Glossary On
Versions: 1 2 3 4 5 6 7 8 9 10 11 12 13 14 15 16 17 18 19 20 21 22 23 24 25 26 27 28 29
631
FTUS43 KMPX 220101 AAB
TAFMSP
TAF AMD
KMSP 220101Z 2201/2306 VRB02KT 3/4SM BR OVC005
     FM220230 VRB02KT 1/2SM FG VV003
     FM221500 31004KT 2SM BR OVC003
     FM221800 30006KT 4SM BR OVC008
     FM222200 30007KT 5SM BR OVC012
     FM230100 30006KT 2SM BR OVC008=

USA.gov is the U.S. government's official web portal to all federal, state and local government web resources and services.